createdAt,value
2022-11-03T00:01:37.965Z,3.00
2022-11-03T00:04:06.129Z,3.17
2022-11-03T00:06:32.820Z,3.33
2022-11-03T00:09:00.831Z,3.00
2022-11-03T00:11:28.336Z,2.60
2022-11-03T00:13:56.852Z,2.90
2022-11-03T00:16:23.220Z,3.10
2022-11-03T00:18:49.558Z,3.23
2022-11-03T00:21:16.020Z,2.87
2022-11-03T00:23:44.432Z,3.07
2022-11-03T00:26:13.759Z,3.27
2022-11-03T00:28:42.575Z,3.20
2022-11-03T00:31:12.051Z,3.20
2022-11-03T00:33:40.340Z,3.00
2022-11-03T00:36:07.980Z,2.80
2022-11-03T00:38:34.335Z,2.60
2022-11-03T00:41:02.729Z,3.00
2022-11-03T00:43:30.731Z,2.90
2022-11-03T00:45:57.184Z,2.70
2022-11-03T00:48:29.260Z,3.10
2022-11-03T00:51:00.504Z,2.90
2022-11-03T00:53:27.211Z,3.83
2022-11-03T00:55:53.576Z,3.90
2022-11-03T00:58:20.008Z,3.20
2022-11-03T01:00:46.438Z,3.27
2022-11-03T01:03:12.845Z,3.50
2022-11-03T01:06:03.875Z,2.97
2022-11-03T01:08:34.574Z,2.80
2022-11-03T01:11:30.743Z,3.73
2022-11-03T01:13:57.177Z,2.73
2022-11-03T01:16:23.610Z,3.50
2022-11-03T01:18:50.809Z,3.23
2022-11-03T01:21:17.503Z,3.17
2022-11-03T01:23:44.095Z,3.17
2022-11-03T01:26:12.423Z,2.83
2022-11-03T01:28:40.739Z,2.63
2022-11-03T01:31:15.293Z,3.00
2022-11-03T01:33:42.753Z,3.50
2022-11-03T01:36:09.480Z,3.17
2022-11-03T01:38:36.890Z,3.43
2022-11-03T01:41:05.730Z,2.50
2022-11-03T01:43:32.472Z,2.80
2022-11-03T01:46:05.080Z,2.83
2022-11-03T01:48:34.383Z,2.50
2022-11-03T01:51:02.617Z,3.10
2022-11-03T01:53:30.274Z,2.83
2022-11-03T01:55:57.816Z,3.00
2022-11-03T01:58:30.260Z,2.77
2022-11-03T02:00:59.438Z,3.00
2022-11-03T02:03:28.114Z,2.40
2022-11-03T02:05:55.565Z,3.30
2022-11-03T02:08:26.871Z,2.70
2022-11-03T02:10:53.437Z,2.87
2022-11-03T02:13:22.839Z,2.80
2022-11-03T02:15:51.300Z,2.20
2022-11-03T02:18:20.687Z,2.70
2022-11-03T02:20:57.604Z,3.20
2022-11-03T02:23:32.626Z,2.47
2022-11-03T02:26:00.814Z,2.53
2022-11-03T02:28:29.898Z,2.63
2022-11-03T02:31:02.623Z,3.20
2022-11-03T02:33:54.089Z,2.63
2022-11-03T02:36:29.583Z,2.80
2022-11-03T02:39:05.374Z,3.00
2022-11-03T02:41:35.202Z,2.93
2022-11-03T02:44:02.708Z,3.30
2022-11-03T02:46:31.973Z,3.30
2022-11-03T02:48:58.541Z,2.43
2022-11-03T02:51:25.574Z,2.60
2022-11-03T02:54:01.441Z,2.57
2022-11-03T02:56:30.356Z,2.30
2022-11-03T02:59:10.472Z,2.63
2022-11-03T03:01:49.021Z,2.57
2022-11-03T03:04:22.709Z,3.07
2022-11-03T03:06:53.624Z,2.87
2022-11-03T03:09:27.381Z,2.63
2022-11-03T03:11:56.376Z,2.60
2022-11-03T03:14:30.726Z,2.40
2022-11-03T03:17:01.932Z,2.43
2022-11-03T03:19:49.209Z,2.63
2022-11-03T03:22:39.481Z,3.13
2022-11-03T03:25:24.138Z,2.23
2022-11-03T03:28:04.260Z,2.33
2022-11-03T03:30:34.162Z,2.73
2022-11-03T03:33:03.855Z,2.50
2022-11-03T03:35:33.216Z,2.80
2022-11-03T03:38:09.521Z,2.80
2022-11-03T03:40:40.182Z,2.70
2022-11-03T03:43:10.142Z,2.53
2022-11-03T03:45:38.173Z,3.07
2022-11-03T03:48:06.203Z,2.60
2022-11-03T03:50:37.367Z,2.40
2022-11-03T03:53:07.273Z,2.87
2022-11-03T03:55:40.301Z,2.83
2022-11-03T03:58:07.975Z,2.80
2022-11-03T04:00:34.513Z,2.50
2022-11-03T04:03:00.908Z,2.77
2022-11-03T04:05:27.493Z,2.83
2022-11-03T04:07:53.825Z,2.60
2022-11-03T04:10:22.271Z,2.97
2022-11-03T04:13:08.703Z,2.30
2022-11-03T04:15:54.723Z,3.10
2022-11-03T04:18:40.285Z,2.83
2022-11-03T04:21:28.868Z,2.30
2022-11-03T04:23:55.260Z,2.23
2022-11-03T04:26:25.284Z,2.23
2022-11-03T04:28:53.380Z,2.60
2022-11-03T04:31:20.856Z,2.73
2022-11-03T04:33:48.989Z,2.60
2022-11-03T04:36:20.580Z,2.53
2022-11-03T04:38:48.576Z,2.73
2022-11-03T04:41:17.923Z,3.27
2022-11-03T04:43:46.516Z,2.40
2022-11-03T04:46:17.980Z,2.47
2022-11-03T04:48:47.292Z,2.47
2022-11-03T04:51:19.900Z,2.53
2022-11-03T04:53:54.344Z,3.03
2022-11-03T04:56:23.580Z,2.40
2022-11-03T04:58:50.783Z,2.40
2022-11-03T05:01:24.061Z,2.37
2022-11-03T05:03:53.931Z,3.07
2022-11-03T05:06:23.135Z,2.50
2022-11-03T05:08:56.845Z,3.10
2022-11-03T05:11:37.376Z,2.80
2022-11-03T05:14:23.260Z,2.53
2022-11-03T05:16:53.510Z,2.63
2022-11-03T05:19:25.782Z,3.07
2022-11-03T05:21:52.946Z,2.47
2022-11-03T05:24:21.990Z,2.77
2022-11-03T05:26:49.438Z,2.80
2022-11-03T05:29:19.675Z,3.67
2022-11-03T05:31:51.973Z,2.93
2022-11-03T05:34:41.075Z,2.53
2022-11-03T05:37:07.533Z,2.37
2022-11-03T05:39:38.254Z,2.50
2022-11-03T05:42:22.740Z,2.77
2022-11-03T05:44:50.921Z,2.90
2022-11-03T05:47:40.303Z,2.87
2022-11-03T05:50:27.408Z,3.53
2022-11-03T05:52:58.951Z,2.67
2022-11-03T05:55:34.011Z,3.13
2022-11-03T05:58:12.072Z,2.50
2022-11-03T06:00:47.159Z,2.70
2022-11-03T06:03:19.446Z,2.83
2022-11-03T06:05:47.287Z,2.43
2022-11-03T06:08:18.883Z,3.80
2022-11-03T06:10:49.144Z,2.53
2022-11-03T06:13:24.196Z,3.13
2022-11-03T06:15:56.607Z,4.13
2022-11-03T06:18:29.656Z,2.67
2022-11-03T06:20:59.856Z,2.63
2022-11-03T06:23:26.531Z,3.53
2022-11-03T06:25:55.612Z,2.63
2022-11-03T06:28:36.795Z,2.60
2022-11-03T06:31:05.649Z,2.83
2022-11-03T06:33:35.999Z,2.77
2022-11-03T06:36:14.844Z,3.00
2022-11-03T06:38:41.492Z,2.57
2022-11-03T06:41:18.151Z,2.90
2022-11-03T06:43:45.176Z,3.00
2022-11-03T06:46:20.212Z,2.70
2022-11-03T06:48:46.819Z,2.63
2022-11-03T06:51:25.736Z,2.60
2022-11-03T06:53:54.140Z,3.03
2022-11-03T06:56:23.014Z,2.53
2022-11-03T06:58:52.969Z,3.30
2022-11-03T07:01:22.743Z,3.13
2022-11-03T07:03:52.658Z,3.00
2022-11-03T07:06:26.099Z,2.70
2022-11-03T07:08:58.735Z,2.50
2022-11-03T07:11:29.972Z,2.67
2022-11-03T07:14:08.065Z,2.60
2022-11-03T07:16:45.638Z,2.63
2022-11-03T07:19:26.301Z,2.30
2022-11-03T07:21:56.274Z,2.20
2022-11-03T07:24:27.115Z,2.20
2022-11-03T07:27:02.118Z,2.80
2022-11-03T07:29:30.983Z,2.77
2022-11-03T07:31:59.493Z,2.53
2022-11-03T07:34:31.489Z,2.67
2022-11-03T07:36:58.428Z,3.27
2022-11-03T07:39:32.332Z,3.00
2022-11-03T07:41:58.622Z,2.80
2022-11-03T07:44:25.020Z,2.53
2022-11-03T07:46:51.503Z,2.50
2022-11-03T07:49:27.024Z,2.90
2022-11-03T07:51:54.922Z,2.83
2022-11-03T07:54:30.279Z,3.03
2022-11-03T07:57:00.184Z,2.80
2022-11-03T07:59:43.971Z,2.43
2022-11-03T08:02:31.883Z,2.40
2022-11-03T08:04:58.994Z,2.83
2022-11-03T08:07:25.675Z,2.70
2022-11-03T08:09:52.417Z,2.83
2022-11-03T08:12:18.881Z,2.87
2022-11-03T08:14:45.299Z,3.10
2022-11-03T08:17:11.708Z,2.87
2022-11-03T08:19:38.192Z,3.00
2022-11-03T08:22:04.740Z,3.10
2022-11-03T08:24:31.101Z,2.40
2022-11-03T08:26:57.456Z,2.47
2022-11-03T08:29:27.092Z,2.50
2022-11-03T08:31:54.216Z,2.27
2022-11-03T08:34:20.711Z,3.03
2022-11-03T08:36:47.085Z,4.57
2022-11-03T08:39:13.482Z,2.80
2022-11-03T08:41:39.980Z,2.47
2022-11-03T08:44:06.738Z,2.70
2022-11-03T08:46:33.018Z,2.90
2022-11-03T08:48:59.989Z,2.70
2022-11-03T08:51:26.356Z,2.73
2022-11-03T08:53:54.157Z,2.67
2022-11-03T08:56:22.697Z,2.70
2022-11-03T08:58:49.564Z,2.63
2022-11-03T09:01:16.192Z,2.80
2022-11-03T09:03:43.024Z,2.70
2022-11-03T09:06:09.509Z,2.90
2022-11-03T09:11:22.510Z,2.23
2022-11-03T09:13:48.907Z,2.83
2022-11-03T09:16:15.230Z,2.20
2022-11-03T09:18:41.534Z,2.40
2022-11-03T09:21:08.891Z,2.33
2022-11-03T09:23:35.308Z,2.20
2022-11-03T09:26:01.629Z,2.70
2022-11-03T09:28:28.087Z,2.40
2022-11-03T09:30:54.714Z,2.30
2022-11-03T09:33:21.035Z,3.57
2022-11-03T09:35:47.418Z,2.40
2022-11-03T09:38:13.704Z,2.23
2022-11-03T09:40:40.089Z,2.63
2022-11-03T09:43:07.217Z,2.90
2022-11-03T09:45:33.722Z,2.47
2022-11-03T09:48:01.263Z,2.27
2022-11-03T09:50:27.704Z,2.80
2022-11-03T09:52:55.366Z,2.37
2022-11-03T09:55:25.096Z,2.50
2022-11-03T09:57:57.563Z,2.40
2022-11-03T10:00:24.590Z,2.33
2022-11-03T10:02:51.286Z,2.50
2022-11-03T10:05:24.194Z,2.53
2022-11-03T10:07:52.695Z,2.77
2022-11-03T10:10:21.244Z,2.70
2022-11-03T10:12:53.142Z,2.53
2022-11-03T10:15:21.868Z,2.60
2022-11-03T10:17:50.638Z,2.17
2022-11-03T10:20:19.939Z,2.00
2022-11-03T10:22:47.542Z,2.33
2022-11-03T10:25:35.791Z,2.30
2022-11-03T10:28:20.647Z,2.60
2022-11-03T10:31:15.995Z,2.23
2022-11-03T10:33:52.944Z,2.07
2022-11-03T10:36:19.280Z,2.10
2022-11-03T10:38:47.727Z,2.70
2022-11-03T10:41:16.660Z,2.40
2022-11-03T10:43:44.857Z,2.30
2022-11-03T10:46:29.559Z,2.37
2022-11-03T10:49:19.919Z,2.10
2022-11-03T10:51:52.623Z,2.07
2022-11-03T10:54:22.841Z,2.60
2022-11-03T10:56:50.847Z,1.90
2022-11-03T10:59:32.451Z,2.50
2022-11-03T11:02:00.522Z,1.97
2022-11-03T11:04:27.447Z,1.93
2022-11-03T11:06:53.858Z,1.70
2022-11-03T11:09:27.128Z,2.10
2022-11-03T11:12:05.117Z,2.27
2022-11-03T11:14:34.828Z,2.23
2022-11-03T11:17:02.633Z,1.90
2022-11-03T11:19:30.273Z,1.83
2022-11-03T11:21:59.724Z,2.03
2022-11-03T11:24:44.354Z,2.20
2022-11-03T11:27:32.629Z,2.10
2022-11-03T11:30:00.432Z,1.93
2022-11-03T11:32:41.982Z,2.03
2022-11-03T11:35:10.881Z,2.10
2022-11-03T11:37:38.307Z,1.90
2022-11-03T11:40:27.940Z,2.23
2022-11-03T11:43:06.677Z,2.00
2022-11-03T11:46:11.055Z,2.20
2022-11-03T11:48:37.401Z,2.23
2022-11-03T11:51:04.054Z,1.90
2022-11-03T11:53:44.841Z,2.43
2022-11-03T11:56:13.901Z,2.30
2022-11-03T11:58:49.919Z,1.90
2022-11-03T12:01:43.740Z,1.97
2022-11-03T12:04:24.099Z,2.00
2022-11-03T12:06:50.470Z,2.13
2022-11-03T12:09:25.086Z,2.03
2022-11-03T12:11:56.123Z,2.33
2022-11-03T12:14:28.599Z,1.80
2022-11-03T12:16:55.904Z,1.80
2022-11-03T12:19:42.622Z,2.30
2022-11-03T12:22:13.103Z,2.30
2022-11-03T12:24:48.786Z,2.13
2022-11-03T12:27:24.445Z,2.60
2022-11-03T12:29:52.183Z,2.03
2022-11-03T12:32:32.695Z,2.23
2022-11-03T12:35:00.951Z,2.20
2022-11-03T12:37:27.438Z,2.57
2022-11-03T12:39:53.743Z,2.33
2022-11-03T12:42:21.140Z,2.37
2022-11-03T12:44:47.680Z,2.27
2022-11-03T12:47:14.013Z,2.77
2022-11-03T12:49:40.324Z,2.73
2022-11-03T12:52:08.607Z,2.43
2022-11-03T12:54:35.478Z,2.87
2022-11-03T12:57:02.014Z,2.33
2022-11-03T12:59:28.381Z,2.60
2022-11-03T13:01:54.904Z,2.30
2022-11-03T13:04:21.416Z,2.40
2022-11-03T13:06:47.947Z,2.23
2022-11-03T13:09:14.388Z,2.67
2022-11-03T13:11:59.524Z,2.20
2022-11-03T13:14:26.760Z,2.43
2022-11-03T13:16:53.372Z,2.90
2022-11-03T13:19:19.757Z,2.73
2022-11-03T13:21:46.168Z,2.47
2022-11-03T13:24:12.475Z,2.57
2022-11-03T13:26:38.959Z,2.23
2022-11-03T13:29:05.400Z,3.30
2022-11-03T13:31:31.755Z,2.40
2022-11-03T13:33:58.095Z,2.70
2022-11-03T13:36:24.578Z,2.50
2022-11-03T13:38:51.104Z,2.77
2022-11-03T13:41:17.420Z,2.47
2022-11-03T13:43:43.772Z,2.20
2022-11-03T13:46:10.215Z,2.60
2022-11-03T13:51:22.978Z,2.93
2022-11-03T14:07:07.199Z,2.27
2022-11-03T14:09:33.934Z,2.40
2022-11-03T14:12:19.026Z,2.13
2022-11-03T14:14:45.325Z,2.60
2022-11-03T14:17:12.252Z,2.97
2022-11-03T14:19:44.852Z,2.30
2022-11-03T14:22:13.764Z,2.40
2022-11-03T14:24:40.139Z,2.07
2022-11-03T14:27:06.572Z,2.40
2022-11-03T14:29:32.983Z,2.50
2022-11-03T14:31:59.755Z,2.50
2022-11-03T14:34:26.312Z,2.53
2022-11-03T14:36:52.924Z,2.60
2022-11-03T14:39:19.316Z,2.30
2022-11-03T14:42:04.099Z,2.40
2022-11-03T14:44:32.762Z,2.27
2022-11-03T14:47:02.976Z,2.23
2022-11-03T14:49:34.120Z,2.57
2022-11-03T14:52:01.994Z,2.27
2022-11-03T14:54:29.740Z,2.17
2022-11-03T14:56:56.508Z,2.43
2022-11-03T14:59:23.264Z,2.20
2022-11-03T15:01:51.659Z,2.67
2022-11-03T15:04:18.288Z,2.07
2022-11-03T15:06:45.096Z,2.47
2022-11-03T15:09:14.766Z,2.30
2022-11-03T15:11:42.801Z,2.50
2022-11-03T15:14:09.605Z,2.37
2022-11-03T15:16:38.951Z,2.93
2022-11-03T15:19:06.299Z,2.80
2022-11-03T15:21:33.347Z,3.00
2022-11-03T15:26:47.252Z,2.67
2022-11-03T15:29:13.722Z,2.77
2022-11-03T15:31:44.437Z,2.60
2022-11-03T15:34:13.724Z,2.73
2022-11-03T15:36:40.059Z,2.73
2022-11-03T15:39:06.432Z,2.80
2022-11-03T15:41:32.906Z,3.20
2022-11-03T15:43:59.219Z,3.30
2022-11-03T15:46:26.063Z,3.00
2022-11-03T15:48:54.357Z,2.80
2022-11-03T15:51:20.819Z,2.70
2022-11-03T15:53:47.253Z,2.77
2022-11-03T15:56:13.584Z,3.30
2022-11-03T15:58:40.103Z,3.17
2022-11-03T16:01:06.731Z,3.17
2022-11-03T16:03:33.232Z,3.10
2022-11-03T16:05:59.850Z,3.03
2022-11-03T16:08:26.413Z,2.90
2022-11-03T16:10:57.690Z,3.03
2022-11-03T16:13:24.799Z,3.30
2022-11-03T16:15:51.534Z,3.80
2022-11-03T16:18:17.974Z,3.60
2022-11-03T16:20:44.414Z,3.50
2022-11-03T16:23:10.817Z,3.47
2022-11-03T16:25:37.480Z,3.47
2022-11-03T16:28:04.237Z,3.13
2022-11-03T16:30:31.302Z,3.57
2022-11-03T16:32:57.626Z,3.50
2022-11-03T16:35:24.314Z,3.50
2022-11-03T16:37:50.714Z,3.13
2022-11-03T16:40:19.688Z,3.60
2022-11-03T16:42:47.524Z,3.60
2022-11-03T16:45:20.366Z,3.43
2022-11-03T16:47:47.874Z,3.47
2022-11-03T16:50:15.711Z,3.80
2022-11-03T16:52:42.751Z,3.73
2022-11-03T16:55:11.645Z,3.17
2022-11-03T16:57:38.999Z,3.40
2022-11-03T17:00:07.430Z,3.37
2022-11-03T17:02:33.980Z,3.97
2022-11-03T17:05:00.326Z,3.70
2022-11-03T17:07:26.646Z,3.40
2022-11-03T17:09:53.127Z,3.40
2022-11-03T17:12:19.511Z,3.83
2022-11-03T17:14:45.919Z,3.73
2022-11-03T17:17:12.412Z,3.73
2022-11-03T17:19:38.751Z,3.83
2022-11-03T17:22:05.764Z,3.77
2022-11-03T17:24:32.520Z,3.60
2022-11-03T17:27:06.301Z,3.50
2022-11-03T17:29:40.075Z,3.97
2022-11-03T17:32:13.640Z,3.60
2022-11-03T17:34:40.279Z,3.87
2022-11-03T17:37:06.980Z,3.80
2022-11-03T17:39:35.444Z,3.27
2022-11-03T17:42:13.968Z,3.30
2022-11-03T17:44:40.433Z,3.70
2022-11-03T17:47:06.742Z,3.73
2022-11-03T17:49:33.600Z,3.47
2022-11-03T17:52:00.271Z,3.63
2022-11-03T17:54:31.785Z,3.90
2022-11-03T17:57:01.390Z,3.60
2022-11-03T17:59:34.725Z,3.43
2022-11-03T18:02:03.050Z,3.70
2022-11-03T18:04:29.585Z,3.60
2022-11-03T18:06:55.910Z,3.80
2022-11-03T18:09:22.285Z,3.70
2022-11-03T18:12:07.366Z,3.57
2022-11-03T18:14:33.911Z,3.17
2022-11-03T18:17:00.629Z,3.63
2022-11-03T18:19:27.419Z,3.83
2022-11-03T18:21:53.912Z,3.10
2022-11-03T18:24:21.590Z,3.03
2022-11-03T18:26:48.426Z,3.17
2022-11-03T18:29:14.826Z,3.03
2022-11-03T18:31:44.007Z,3.60
2022-11-03T18:34:15.384Z,3.33
2022-11-03T18:36:42.179Z,3.00
2022-11-03T18:39:21.264Z,3.23
2022-11-03T18:41:47.694Z,3.30
2022-11-03T18:44:24.031Z,2.87
2022-11-03T18:46:51.476Z,3.20
2022-11-03T18:49:18.713Z,3.50
2022-11-03T18:51:49.352Z,3.50
2022-11-03T18:56:46.065Z,3.47
2022-11-03T18:59:21.028Z,3.00
2022-11-03T19:01:47.537Z,3.27
2022-11-03T19:04:17.723Z,3.20
2022-11-03T19:06:46.706Z,3.57
2022-11-03T19:09:16.618Z,3.33
2022-11-03T19:11:43.937Z,3.17
2022-11-03T19:14:16.261Z,3.50
2022-11-03T19:16:55.679Z,3.40
2022-11-03T19:19:30.168Z,3.50
2022-11-03T19:21:56.632Z,3.93
2022-11-03T19:24:23.232Z,4.20
2022-11-03T19:27:04.722Z,4.00
2022-11-03T19:29:36.393Z,3.93
2022-11-03T19:32:03.702Z,3.40
2022-11-03T19:34:34.415Z,3.67
2022-11-03T19:37:01.044Z,3.60
2022-11-03T19:39:36.793Z,4.20
2022-11-03T19:42:28.029Z,3.87
2022-11-03T19:44:59.275Z,4.17
2022-11-03T19:47:34.704Z,3.90
2022-11-03T19:50:05.114Z,4.10
2022-11-03T19:52:32.613Z,4.17
2022-11-03T19:55:02.266Z,3.77
2022-11-03T19:57:28.667Z,3.30
2022-11-03T19:59:58.815Z,3.60
2022-11-03T20:02:27.819Z,4.40
2022-11-03T20:04:54.559Z,4.07
2022-11-03T20:07:20.988Z,3.90
2022-11-03T20:09:47.434Z,4.30
2022-11-03T20:12:18.441Z,3.87
2022-11-03T20:14:44.909Z,3.87
2022-11-03T20:17:17.389Z,4.10
2022-11-03T20:19:44.411Z,4.57
2022-11-03T20:22:16.165Z,3.90
2022-11-03T20:24:45.048Z,4.00
2022-11-03T20:27:12.108Z,4.70
2022-11-03T20:29:39.363Z,3.53
2022-11-03T20:32:05.900Z,4.00
2022-11-03T20:34:32.241Z,4.00
2022-11-03T20:37:04.413Z,4.00
2022-11-03T20:39:32.921Z,4.23
2022-11-03T20:41:59.581Z,4.27
2022-11-03T20:44:26.056Z,4.00
2022-11-03T20:46:52.416Z,4.60
2022-11-03T20:49:18.742Z,4.07
2022-11-03T20:51:46.283Z,4.47
2022-11-03T20:54:21.072Z,4.70
2022-11-03T20:56:47.813Z,4.30
2022-11-03T20:59:23.254Z,4.40
2022-11-03T21:01:50.513Z,4.30
2022-11-03T21:04:19.088Z,4.10
2022-11-03T21:06:46.347Z,4.53
2022-11-03T21:09:15.504Z,4.80
2022-11-03T21:11:43.555Z,4.43
2022-11-03T21:14:24.415Z,4.97
2022-11-03T21:17:09.600Z,4.50
2022-11-03T21:19:54.648Z,4.37
2022-11-03T21:22:51.953Z,4.40
2022-11-03T21:25:13.374Z,4.20
2022-11-03T21:27:42.094Z,4.97
2022-11-03T21:30:14.394Z,4.40
2022-11-03T21:32:41.417Z,4.33
2022-11-03T21:35:16.177Z,4.93
2022-11-03T21:37:42.604Z,4.27
2022-11-03T21:40:10.168Z,4.53
2022-11-03T21:42:55.236Z,4.03
2022-11-03T21:45:21.609Z,4.30
2022-11-03T21:48:12.032Z,3.50
2022-11-03T21:50:40.183Z,3.40
2022-11-03T21:53:07.213Z,3.47
2022-11-03T21:55:34.024Z,3.30
2022-11-03T21:58:02.057Z,3.67
2022-11-03T22:00:28.924Z,3.57
2022-11-03T22:02:55.448Z,4.53
2022-11-03T22:05:21.970Z,3.90
2022-11-03T22:07:48.431Z,3.73
2022-11-03T22:10:14.843Z,4.13
2022-11-03T22:12:41.286Z,4.77
2022-11-03T22:15:26.802Z,4.80
2022-11-03T22:17:53.260Z,4.70
2022-11-03T22:20:38.291Z,3.63
2022-11-03T22:23:23.483Z,3.70
2022-11-03T22:26:08.195Z,3.90
2022-11-03T22:28:34.531Z,3.60
2022-11-03T22:31:22.606Z,3.87
2022-11-03T22:34:07.288Z,3.37
2022-11-03T22:36:33.716Z,3.80
2022-11-03T22:39:18.818Z,3.73
2022-11-03T22:42:06.618Z,3.87
2022-11-03T22:44:51.797Z,4.37
2022-11-03T22:47:18.904Z,3.20
2022-11-03T22:49:45.549Z,2.67
2022-11-03T22:52:12.014Z,1.70
2022-11-03T22:54:38.391Z,1.63
2022-11-03T22:57:04.809Z,1.80
2022-11-03T22:59:31.210Z,1.60
2022-11-03T23:01:57.665Z,1.63
2022-11-03T23:04:24.324Z,2.90
2022-11-03T23:06:50.727Z,1.30
2022-11-03T23:09:17.620Z,1.30
2022-11-03T23:11:44.156Z,1.57
2022-11-03T23:14:11.642Z,1.50
2022-11-03T23:16:40.814Z,1.50
2022-11-03T23:19:28.328Z,1.60
2022-11-03T23:21:54.919Z,1.40
2022-11-03T23:24:43.993Z,1.40
2022-11-03T23:27:12.431Z,1.53
2022-11-03T23:29:38.783Z,1.47
2022-11-03T23:32:05.618Z,1.60
2022-11-03T23:34:32.003Z,1.70
2022-11-03T23:36:58.631Z,1.47
2022-11-03T23:39:25.011Z,1.40
2022-11-03T23:41:51.449Z,1.30
2022-11-03T23:44:17.835Z,1.80
2022-11-03T23:47:03.563Z,1.40
2022-11-03T23:49:30.160Z,1.47
2022-11-03T23:51:56.680Z,1.30
2022-11-03T23:54:23.303Z,1.30
2022-11-03T23:57:08.334Z,1.57
2022-11-03T23:59:35.114Z,1.17
